Time;durP1;ratioP1;P1;durP2;ratioP2;P2;SDS_P1;SDS_P2;PMS_P1;PMS_P2;Temp;Humidity;BMP_temperature;BMP_pressure;BME280_temperature;BME280_humidity;BME280_pressure;Samples;Min_cycle;Max_cycle;Signal;HPM_P1;HPM_P2
2020/12/09 00:00:12;;;;;;;16.83;8.73;;;3.60;99.90;;;1.71;93.67;100436.41;4947830;28;20046;-41
2020/12/09 00:02:40;;;;;;;18.58;9.30;;;3.50;99.90;;;1.71;93.40;100435.56;4979781;28;20129;-41
2020/12/09 00:05:11;;;;;;;19.90;9.43;;;3.60;99.90;;;1.70;93.11;100434.72;4963582;28;20040;-40
2020/12/09 00:07:39;;;;;;;18.75;9.70;;;3.50;99.90;;;1.71;93.50;100439.09;4964171;28;20057;-41
2020/12/09 00:10:08;;;;;;;21.92;11.02;;;3.60;99.90;;;1.71;93.49;100440.97;4948020;28;20069;-40
2020/12/09 00:12:36;;;;;;;22.10;10.40;;;3.50;99.90;;;1.72;93.59;100445.34;4963134;28;20056;-40
2020/12/09 00:15:09;;;;;;;20.30;9.15;;;3.60;99.90;;;1.71;93.44;100446.34;4963576;28;20508;-40
2020/12/09 00:17:37;;;;;;;20.38;9.85;;;3.60;99.90;;;1.71;93.25;100451.72;4995895;28;20100;-40
2020/12/09 00:20:06;;;;;;;20.33;9.57;;;3.50;99.90;;;1.71;93.50;100443.66;4963551;28;20496;-41
2020/12/09 00:22:35;;;;;;;20.45;10.13;;;3.60;99.90;;;1.71;93.72;100443.66;4979396;28;20041;-40
2020/12/09 00:25:04;;;;;;;21.23;10.40;;;3.60;99.90;;;1.71;93.41;100435.56;4947495;28;20046;-41
2020/12/09 00:27:34;;;;;;;21.55;9.75;;;3.50;99.90;;;1.69;93.08;100443.81;4931666;28;20501;-40
2020/12/09 00:30:05;;;;;;;20.88;10.30;;;3.50;99.90;;;1.66;93.47;100449.50;4980082;28;20473;-40
2020/12/09 00:32:35;;;;;;;20.00;9.63;;;3.50;99.90;;;1.66;93.33;100451.38;4979371;28;20509;-41
2020/12/09 00:35:07;;;;;;;22.52;10.15;;;3.50;99.90;;;1.64;92.96;100448.84;4962991;28;20424;-40
2020/12/09 00:37:35;;;;;;;20.05;9.48;;;3.50;99.90;;;1.62;93.67;100458.91;4995322;28;20585;-40
2020/12/09 00:40:06;;;;;;;18.02;9.02;;;3.50;99.90;;;1.61;92.80;100453.72;5012774;28;20041;-40
2020/12/09 00:42:35;;;;;;;21.75;9.75;;;3.40;99.90;;;1.60;93.29;100466.31;4995350;28;20046;-41
2020/12/09 00:45:04;;;;;;;18.02;10.00;;;3.50;99.90;;;1.59;93.02;100459.25;4962889;28;20061;-40
2020/12/09 00:47:32;;;;;;;18.45;10.50;;;3.40;99.90;;;1.62;93.43;100468.84;4995444;28;20420;-41
2020/12/09 00:52:39;;;;;;;20.00;10.65;;;3.40;99.90;;;1.60;93.28;100460.09;4980674;28;20045;-41
2020/12/09 00:55:09;;;;;;;19.65;9.80;;;3.40;99.90;;;1.60;92.73;100460.94;4946964;28;20092;-40
2020/12/09 00:57:37;;;;;;;20.88;10.13;;;3.40;99.90;;;1.60;92.92;100470.84;4995003;28;20057;-41
2020/12/09 01:00:07;;;;;;;21.10;11.10;;;3.40;99.90;;;1.61;92.87;100461.78;4947255;28;20046;-40
2020/12/09 01:02:38;;;;;;;23.33;10.75;;;3.40;99.90;;;1.61;93.18;100472.53;5012409;28;20531;-41
2020/12/09 01:05:09;;;;;;;23.60;10.82;;;3.40;99.90;;;1.60;92.99;100465.47;4962662;28;20040;-41
2020/12/09 01:07:38;;;;;;;22.92;10.68;;;3.40;99.90;;;1.62;93.07;100472.34;4978929;28;20066;-40
2020/12/09 01:10:08;;;;;;;21.77;10.32;;;3.40;99.90;;;1.61;93.02;100472.53;4946976;28;20408;-40
2020/12/09 01:12:40;;;;;;;20.25;9.63;;;3.40;99.90;;;1.61;92.81;100478.75;4978338;28;20140;-40
2020/12/09 01:15:10;;;;;;;19.27;9.45;;;3.40;99.90;;;1.59;92.67;100480.75;4962629;28;20054;-40
2020/12/09 01:17:37;;;;;;;20.90;10.10;;;3.40;99.90;;;1.59;92.59;100480.75;4962721;28;20092;-41
2020/12/09 01:20:06;;;;;;;22.27;9.90;;;3.40;99.90;;;1.58;93.27;100490.66;4946895;28;20069;-41
2020/12/09 01:22:35;;;;;;;23.45;10.80;;;3.40;99.90;;;1.60;92.84;100484.31;4994422;28;20092;-40
2020/12/09 01:25:04;;;;;;;22.60;9.90;;;3.40;99.90;;;1.61;93.33;100484.13;4978455;28;20049;-41
2020/12/09 01:27:32;;;;;;;22.77;10.55;;;3.40;99.90;;;1.60;93.03;100481.63;4946610;28;20543;-40
2020/12/09 01:30:00;;;;;;;20.73;9.87;;;3.40;99.90;;;1.61;93.41;100480.59;4962511;28;20325;-40
2020/12/09 01:32:27;;;;;;;22.52;10.18;;;3.40;99.90;;;1.61;93.02;100483.28;4978540;28;20531;-40
2020/12/09 01:34:54;;;;;;;22.00;10.52;;;3.40;99.90;;;1.60;92.88;100492.38;4962300;28;20485;-41
2020/12/09 01:37:23;;;;;;;23.98;11.30;;;3.40;99.90;;;1.61;92.85;100494.06;4962498;28;20129;-40
2020/12/09 01:39:50;;;;;;;;;;;3.40;99.90;;;1.61;92.82;100496.75;4962727;28;20057;-40
2020/12/09 01:42:18;;;;;;;24.30;11.05;;;3.40;99.90;;;1.65;92.88;100495.41;4978298;28;19959;-40
2020/12/09 01:44:45;;;;;;;20.38;9.60;;;3.50;99.90;;;1.65;92.68;100506.16;4962299;28;20046;-40
2020/12/09 01:47:14;;;;;;;26.38;11.98;;;3.50;99.90;;;1.67;93.12;100504.16;4946416;28;20048;-40
2020/12/09 01:49:42;;;;;;;;;;;3.40;99.90;;;1.72;92.56;100496.44;4962593;28;20477;-40
2020/12/09 01:52:10;;;;;;;25.55;12.18;;;3.50;99.90;;;1.72;92.14;100491.91;4977949;28;19921;-41
2020/12/09 01:54:37;;;;;;;28.73;11.95;;;3.50;99.90;;;1.69;91.96;100500.28;4977936;28;20512;-41
2020/12/09 01:57:11;;;;;;;23.13;11.30;;;3.50;99.90;;;1.70;91.83;100503.81;4948222;28;20099;-41
2020/12/09 01:59:42;;;;;;;27.40;11.32;;;3.50;99.90;;;1.74;91.77;100505.19;4981989;28;20048;-40
2020/12/09 02:02:09;;;;;;;22.92;11.32;;;3.50;99.90;;;1.74;92.00;100515.13;4966204;28;20069;-40
2020/12/09 02:04:38;;;;;;;26.10;12.60;;;3.60;99.90;;;1.72;92.05;100512.56;4965708;28;20050;-40
2020/12/09 02:07:05;;;;;;;22.65;10.82;;;3.50;99.90;;;1.70;91.58;100511.91;4981813;28;20132;-40
2020/12/09 02:09:34;;;;;;;24.95;11.38;;;3.50;99.90;;;1.66;91.77;100507.84;4981992;28;20117;-41
2020/12/09 02:12:01;;;;;;;24.08;11.55;;;3.50;99.90;;;1.68;92.36;100511.22;4965678;28;20141;-41
2020/12/09 02:14:29;;;;;;;24.35;11.30;;;3.50;99.90;;;1.69;91.74;100512.91;4949666;28;20125;-41
2020/12/09 02:16:59;;;;;;;25.77;11.88;;;3.50;99.90;;;1.72;91.60;100517.97;4998076;28;20516;-40
2020/12/09 02:19:28;;;;;;;24.38;10.75;;;3.50;99.90;;;1.74;91.99;100521.31;4997710;28;20050;-40
2020/12/09 02:22:10;;;;;;;24.50;11.60;;;3.50;99.90;;;1.69;91.65;100532.56;4965446;28;20046;-41
2020/12/09 02:24:37;;;;;;;26.17;11.00;;;3.50;99.90;;;1.68;91.62;100538.94;4983486;28;20092;-40
2020/12/09 02:27:05;;;;;;;23.30;11.20;;;3.50;99.90;;;1.67;92.04;100531.88;4981863;28;20446;-40
2020/12/09 02:29:32;;;;;;;23.25;11.02;;;3.50;99.90;;;1.65;91.89;100535.75;4965690;28;20053;-41
2020/12/09 02:32:00;;;;;;;25.15;11.90;;;3.50;99.90;;;1.65;91.71;100541.97;4950004;28;20048;-40
2020/12/09 02:34:29;;;;;;;27.27;11.60;;;3.50;99.90;;;1.67;92.11;100531.06;4965259;28;20104;-40
2020/12/09 02:36:56;;;;;;;29.40;11.65;;;3.50;99.90;;;1.69;92.20;100539.81;4965313;28;20046;-40
2020/12/09 02:39:34;;;;;;;22.88;11.98;;;3.50;99.90;;;1.70;91.94;100538.81;4981813;28;20068;-41
2020/12/09 02:42:03;;;;;;;25.50;11.70;;;3.50;99.90;;;1.74;91.77;100525.88;4965516;28;20046;-41
2020/12/09 02:44:32;;;;;;;22.60;11.15;;;3.50;99.90;;;1.76;92.03;100529.25;4997158;28;20489;-41
2020/12/09 02:46:59;;;;;;;25.23;11.90;;;3.60;99.90;;;1.76;91.51;100529.25;4965176;28;20042;-41
2020/12/09 02:49:27;;;;;;;26.23;12.07;;;3.60;99.90;;;1.71;91.13;100527.84;4981290;28;20041;-41
2020/12/09 02:51:55;;;;;;;;;;;3.50;99.90;;;1.75;91.11;100528.38;4998081;28;20532;-41
2020/12/09 02:54:22;;;;;;;23.98;10.95;;;3.50;99.90;;;1.73;91.23;100538.47;4964716;28;19921;-40
2020/12/09 02:56:49;;;;;;;24.08;12.13;;;3.50;99.90;;;1.74;91.07;100532.09;4949359;28;20050;-40
2020/12/09 02:59:17;;;;;;;27.65;12.40;;;3.60;99.90;;;1.72;90.95;100536.78;4965129;28;20117;-41
2020/12/09 03:01:44;;;;;;;29.53;14.13;;;3.50;99.90;;;1.70;91.65;100533.41;4965118;28;20072;-40
2020/12/09 03:04:12;;;;;;;26.85;12.60;;;3.50;99.90;;;1.69;90.79;100534.44;4964555;28;20436;-40
2020/12/09 03:06:42;;;;;;;27.58;12.43;;;3.50;99.90;;;1.64;91.63;100536.75;4964979;28;20137;-40
2020/12/09 03:09:09;;;;;;;25.80;11.98;;;3.50;99.90;;;1.64;91.08;100534.06;4980670;28;20096;-40
2020/12/09 03:11:37;;;;;;;27.88;12.55;;;3.40;99.90;;;1.68;91.60;100530.88;4949231;28;20486;-41
2020/12/09 03:14:04;;;;;;;32.80;13.52;;;3.50;99.90;;;1.69;90.85;100534.44;4980640;28;20844;-40
2020/12/09 03:16:32;;;;;;;31.10;12.75;;;3.50;99.90;;;1.70;91.15;100531.56;4948756;28;20070;-40
2020/12/09 03:18:59;;;;;;;28.98;13.20;;;3.50;99.90;;;1.70;90.32;100536.09;4981110;28;20096;-40
2020/12/09 03:21:26;;;;;;;29.88;13.73;;;3.50;99.90;;;1.65;90.87;100533.06;4964535;28;20396;-41
2020/12/09 03:23:54;;;;;;;28.83;13.30;;;3.40;99.90;;;1.64;90.64;100531.38;4964433;28;20117;-40
2020/12/09 03:26:21;;;;;;;31.97;13.37;;;3.50;99.90;;;1.65;90.60;100541.13;4964486;28;20468;-40
2020/12/09 03:28:48;;;;;;;31.25;14.13;;;3.40;99.90;;;1.66;90.45;100540.13;4964867;28;20034;-40
2020/12/09 03:31:16;;;;;;;32.65;14.18;;;3.40;99.90;;;1.60;90.73;100540.78;4964864;28;20049;-40
2020/12/09 03:33:44;;;;;;;33.47;15.02;;;3.40;99.90;;;1.58;90.75;100536.38;4964262;28;20050;-40
2020/12/09 03:36:12;;;;;;;29.60;13.75;;;3.40;99.90;;;1.54;90.76;100536.88;4964749;28;20046;-40
2020/12/09 03:38:39;;;;;;;29.23;13.93;;;3.40;99.90;;;1.55;91.14;100538.56;4964422;28;20045;-40
2020/12/09 03:41:06;;;;;;;29.88;13.93;;;3.40;99.90;;;1.54;91.08;100545.78;4964296;28;20045;-40
2020/12/09 03:43:34;;;;;;;29.80;12.90;;;3.40;99.90;;;1.56;91.21;100540.25;4964263;28;20038;-40
2020/12/09 03:46:01;;;;;;;29.35;13.25;;;3.40;99.90;;;1.57;91.08;100550.00;4964549;28;20080;-40
2020/12/09 03:48:28;;;;;;;32.50;13.93;;;3.40;99.90;;;1.57;91.40;100548.13;4980494;28;20048;-40
2020/12/09 03:50:56;;;;;;;28.08;13.27;;;3.40;99.90;;;1.55;91.58;100546.63;4964120;28;20041;-40
2020/12/09 03:53:24;;;;;;;26.67;12.68;;;3.40;99.90;;;1.51;91.24;100547.94;4947973;28;20479;-41
2020/12/09 03:55:51;;;;;;;27.85;14.02;;;3.30;99.90;;;1.54;91.06;100550.31;4964429;28;20050;-41
2020/12/09 03:58:18;;;;;;;33.10;13.90;;;3.30;99.90;;;1.53;91.26;100552.16;4948089;28;20072;-40
2020/12/09 04:00:46;;;;;;;25.80;12.57;;;3.30;99.90;;;1.53;91.27;100556.69;4980332;28;20101;-40
2020/12/09 04:03:13;;;;;;;32.15;14.13;;;3.30;99.90;;;1.51;91.09;100556.84;4979886;28;20443;-41
2020/12/09 04:05:40;;;;;;;31.42;12.45;;;3.30;99.90;;;1.52;90.93;100558.53;4947718;28;20038;-41
2020/12/09 04:08:07;;;;;;;29.63;13.43;;;3.40;99.90;;;1.51;91.15;100564.09;4963913;28;20049;-40
2020/12/09 04:10:35;;;;;;;29.17;13.35;;;3.30;99.90;;;1.51;91.18;100564.09;4964296;28;20056;-40
2020/12/09 04:13:02;;;;;;;28.52;13.65;;;3.30;99.90;;;1.50;91.49;100568.59;4979688;28;20049;-40
2020/12/09 04:15:29;;;;;;;26.92;13.27;;;3.30;99.90;;;1.50;91.10;100573.16;4963439;28;20590;-40
2020/12/09 04:17:57;;;;;;;29.80;13.23;;;3.30;99.90;;;1.52;91.24;100571.97;4963840;28;20418;-40
2020/12/09 04:20:24;;;;;;;26.63;13.15;;;3.30;99.90;;;1.49;91.16;100572.31;4963041;28;20077;-40
2020/12/09 04:22:51;;;;;;;29.15;13.50;;;3.30;99.90;;;1.49;91.38;100572.31;4947744;28;20665;-40
2020/12/09 04:25:18;;;;;;;28.38;13.73;;;3.30;99.90;;;1.51;91.25;100577.53;4979656;28;20038;-40
2020/12/09 04:27:45;;;;;;;29.80;14.35;;;3.30;99.90;;;1.52;90.65;100577.34;4979528;28;20034;-40
2020/12/09 04:30:13;;;;;;;32.67;14.27;;;3.30;99.90;;;1.48;90.52;100581.38;4979520;28;20057;-40
2020/12/09 04:32:41;;;;;;;32.25;14.45;;;3.30;99.90;;;1.47;90.78;100579.69;4947499;28;20046;-40
2020/12/09 04:35:08;;;;;;;31.30;14.55;;;3.30;99.90;;;1.45;91.12;100576.31;4947414;28;20033;-41
2020/12/09 04:37:36;;;;;;;32.60;14.00;;;3.30;99.90;;;1.46;90.83;100572.63;4980648;28;20065;-41
2020/12/09 04:40:05;;;;;;;33.30;13.43;;;3.30;99.90;;;1.46;90.65;100575.31;4995828;28;20042;-41
2020/12/09 04:42:33;;;;;;;34.60;13.57;;;3.30;99.90;;;1.40;90.89;100571.41;4979253;28;20451;-40
2020/12/09 04:45:00;;;;;;;31.10;14.45;;;3.30;99.90;;;1.45;91.02;100576.31;4979147;28;20053;-40
2020/12/09 04:47:41;;;;;;;32.88;14.93;;;3.30;99.90;;;1.44;90.66;100580.00;4979291;28;20045;-40
2020/12/09 04:50:12;;;;;;;32.53;14.60;;;3.30;99.90;;;1.42;90.78;100579.31;4979210;28;20044;-40
2020/12/09 04:53:02;;;;;;;30.77;14.52;;;3.20;99.90;;;1.41;90.74;100577.63;4995138;28;20124;-40
2020/12/09 04:55:32;;;;;;;;;;;3.20;99.90;;;1.38;90.38;100570.72;4995703;28;20124;-40
2020/12/09 04:58:11;;;;;;;33.90;13.98;;;3.20;99.90;;;1.36;90.74;100572.72;4995094;28;19975;-40
2020/12/09 05:00:44;;;;;;;34.58;15.32;;;3.20;99.90;;;1.38;90.49;100576.09;4995005;28;20417;-41
2020/12/09 05:03:21;;;;;;;32.30;13.98;;;3.20;99.90;;;1.40;90.58;100573.25;4978800;28;20038;-40
2020/12/09 05:05:48;;;;;;;29.30;14.35;;;3.20;99.90;;;1.36;91.10;100572.72;4962924;28;20447;-40
2020/12/09 05:08:33;;;;;;;32.15;14.70;;;3.20;99.90;;;1.33;90.92;100581.09;4947171;28;20053;-40
2020/12/09 05:11:06;;;;;;;32.33;14.15;;;3.10;99.90;;;1.32;90.59;100581.25;4994945;28;20045;-41
2020/12/09 05:13:36;;;;;;;28.92;13.32;;;3.20;99.90;;;1.29;90.82;100583.25;5011720;28;20053;-41
2020/12/09 05:16:04;;;;;;;33.75;14.70;;;3.10;99.90;;;1.25;90.82;100581.06;4995299;28;20104;-40
2020/12/09 05:18:42;;;;;;;32.40;14.57;;;3.10;99.90;;;1.24;90.90;100585.59;4978969;28;20048;-40
2020/12/09 05:21:14;;;;;;;36.08;15.32;;;3.10;99.90;;;1.24;90.79;100587.44;5012014;28;20033;-40
2020/12/09 05:23:46;;;;;;;33.90;15.57;;;3.10;99.90;;;1.20;90.63;100591.44;4978514;28;20116;-40
2020/12/09 05:26:21;;;;;;;35.15;16.13;;;3.10;99.90;;;1.18;90.75;100590.72;4994346;28;20119;-40
2020/12/09 05:29:12;;;;;;;36.65;16.88;;;3.00;99.90;;;1.12;90.71;100597.59;4994843;28;20037;-41
2020/12/09 05:31:44;;;;;;;33.05;15.02;;;3.00;99.90;;;1.06;90.56;100598.19;4980847;28;20080;-40
2020/12/09 05:34:25;;;;;;;39.08;15.93;;;2.90;99.90;;;1.09;90.51;100600.59;4994076;28;20046;-41
2020/12/09 05:36:56;;;;;;;34.88;16.05;;;2.90;99.90;;;1.04;90.79;100609.13;5011885;28;20129;-41
2020/12/09 05:39:25;;;;;;;36.08;15.75;;;2.90;99.90;;;1.01;90.77;100612.13;4994763;28;20057;-40
2020/12/09 05:41:54;;;;;;;36.42;17.00;;;2.90;99.90;;;1.04;90.36;100611.81;4978397;28;20046;-40
2020/12/09 05:44:24;;;;;;;32.28;16.10;;;2.90;99.90;;;1.02;90.37;100602.19;4977919;28;20042;-40
2020/12/09 05:47:03;;;;;;;38.22;16.52;;;2.90;99.90;;;0.99;89.78;100609.56;5011693;28;20068;-40
2020/12/09 05:49:36;;;;;;;37.30;16.58;;;2.80;99.90;;;1.10;89.73;100621.94;5011981;28;20124;-40
2020/12/09 05:52:23;;;;;;;37.65;16.90;;;2.90;99.90;;;1.03;89.23;100618.19;5012097;28;20050;-40
2020/12/09 05:54:53;;;;;;;43.83;17.75;;;2.90;99.90;;;0.95;89.35;100627.00;4978101;28;20124;-40
2020/12/09 05:57:25;;;;;;;43.80;18.23;;;2.80;99.90;;;0.95;89.73;100627.00;4994330;28;20428;-40
2020/12/09 05:59:53;;;;;;;41.47;18.45;;;2.80;99.90;;;0.96;89.03;100627.88;4962562;28;20046;-40
2020/12/09 06:02:27;;;;;;;44.85;18.20;;;2.80;99.90;;;0.94;89.51;100635.25;4962178;28;20041;-40
2020/12/09 06:05:04;;;;;;;39.92;17.00;;;2.80;99.90;;;0.91;88.67;100640.88;4993946;28;20065;-40
2020/12/09 06:07:32;;;;;;;43.17;19.02;;;2.70;99.90;;;0.88;88.92;100641.19;4994143;28;20514;-40
2020/12/09 06:10:13;;;;;;;46.08;19.48;;;2.70;99.90;;;0.79;88.70;100649.19;4978278;28;20045;-40
2020/12/09 06:12:54;;;;;;;42.15;17.83;;;2.70;99.90;;;0.80;89.15;100660.78;4994711;28;20052;-40
2020/12/09 06:15:25;;;;;;;46.55;19.13;;;2.70;99.90;;;0.79;89.33;100659.06;4993921;28;20596;-40
2020/12/09 06:18:13;;;;;;;45.78;19.08;;;2.70;99.90;;;0.79;89.34;100661.75;5011655;28;20054;-40
2020/12/09 06:20:44;;;;;;;41.17;17.73;;;2.60;99.90;;;0.75;89.88;100655.88;4996030;28;20038;-40
2020/12/09 06:23:14;;;;;;;47.20;18.33;;;2.60;99.90;;;0.78;89.69;100654.69;4962403;28;20042;-40
2020/12/09 06:25:44;;;;;;;40.20;17.25;;;2.60;99.90;;;0.68;89.46;100652.09;4977937;28;20046;-40
2020/12/09 06:28:15;;;;;;;48.10;18.02;;;2.60;99.90;;;0.67;89.94;100659.31;4977928;28;20535;-40
2020/12/09 06:30:44;;;;;;;51.70;19.92;;;2.50;99.90;;;0.68;89.46;100652.09;5011432;28;20551;-40
2020/12/09 06:33:12;;;;;;;47.25;18.95;;;2.50;99.90;;;0.64;89.29;100659.63;5011818;28;20042;-40
2020/12/09 06:35:41;;;;;;;44.95;18.27;;;2.50;99.90;;;0.58;89.41;100665.59;4977550;28;20500;-41
2020/12/09 06:38:09;;;;;;;44.08;17.77;;;2.40;99.90;;;0.59;89.22;100658.38;5011417;28;20050;-40
2020/12/09 06:40:57;;;;;;;45.17;18.27;;;2.40;99.90;;;0.55;89.32;100657.84;4977763;28;20050;-40
2020/12/09 06:43:24;;;;;;;42.80;17.40;;;2.40;99.90;;;0.54;89.60;100669.59;4996009;28;20042;-40
2020/12/09 06:45:52;;;;;;;45.97;18.15;;;2.40;99.90;;;0.55;89.57;100665.91;4997646;28;20496;-40
2020/12/09 06:48:19;;;;;;;44.85;18.35;;;2.40;99.90;;;0.56;89.41;100672.97;4981320;28;20133;-40
2020/12/09 06:50:47;;;;;;;43.92;18.48;;;2.40;99.90;;;0.52;89.52;100675.09;5014851;28;20050;-40
2020/12/09 06:53:24;;;;;;;45.88;17.73;;;2.40;99.90;;;0.49;89.74;100682.59;4997214;28;20046;-40
2020/12/09 06:56:21;;;;;;;46.65;17.02;;;2.40;99.90;;;0.47;89.58;100679.22;4997591;28;20062;-40
2020/12/09 06:58:48;;;;;;;41.33;17.25;;;2.40;99.90;;;0.43;89.25;100681.38;4985074;28;20041;-41
2020/12/09 07:01:15;;;;;;;37.70;17.38;;;2.30;99.90;;;0.41;89.06;100686.88;4964959;28;20046;-40
2020/12/09 07:03:51;;;;;;;35.67;15.43;;;2.30;99.90;;;0.37;88.78;100690.84;4997038;28;20512;-40
2020/12/09 07:06:20;;;;;;;36.97;15.32;;;2.30;99.90;;;0.39;88.81;100693.38;4981265;28;20129;-40
2020/12/09 07:08:49;;;;;;;42.65;17.30;;;2.30;99.90;;;0.36;88.76;100699.91;5014805;28;20072;-40
2020/12/09 07:11:16;;;;;;;35.63;16.38;;;2.30;99.90;;;0.32;89.05;100698.50;4997412;28;20428;-40
2020/12/09 07:13:43;;;;;;;34.92;15.32;;;2.20;99.90;;;0.25;89.92;100698.25;4996493;28;20046;-40
2020/12/09 07:16:11;;;;;;;37.90;16.33;;;2.20;99.90;;;0.24;89.66;100696.56;4980958;28;20517;-40
2020/12/09 07:18:38;;;;;;;37.88;16.23;;;2.10;99.90;;;0.19;89.38;100696.16;4996785;28;20129;-40
2020/12/09 07:21:06;;;;;;;35.90;15.27;;;2.20;99.90;;;0.24;88.82;100706.44;4980816;28;20042;-40
2020/12/09 07:23:35;;;;;;;35.08;15.73;;;2.20;99.90;;;0.18;88.98;100698.97;4996783;28;20046;-40
2020/12/09 07:26:04;;;;;;;33.35;14.95;;;2.10;99.90;;;0.19;88.91;100708.72;5014063;28;20045;-40
2020/12/09 07:28:32;;;;;;;32.25;14.95;;;2.10;99.90;;;0.11;88.73;100701.41;4981152;28;20049;-41
2020/12/09 07:31:10;;;;;;;36.80;15.40;;;2.00;99.90;;;0.08;88.37;100697.19;4996957;28;20528;-40
2020/12/09 07:33:39;;;;;;;32.35;14.35;;;2.00;99.90;;;0.04;88.18;100698.47;4996930;28;20049;-40
2020/12/09 07:36:09;;;;;;;33.33;15.68;;;2.00;99.90;;;-0.04;88.45;100703.72;5013952;28;20042;-40
2020/12/09 07:38:43;;;;;;;35.88;15.13;;;1.90;99.90;;;-0.06;88.46;100703.88;4981291;28;20054;-40
2020/12/09 07:41:11;;;;;;;28.38;13.32;;;1.90;99.90;;;-0.08;88.74;100699.63;4981435;28;20045;-40
2020/12/09 07:43:40;;;;;;;31.42;14.35;;;1.90;99.90;;;-0.16;88.79;100700.34;4996106;28;20140;-40
2020/12/09 07:46:07;;;;;;;30.45;14.00;;;1.80;99.90;;;-0.22;89.03;100706.31;4980254;28;20092;-40
2020/12/09 07:48:35;;;;;;;33.90;14.73;;;1.70;99.90;;;-0.27;88.93;100704.03;4996497;28;20504;-40
2020/12/09 07:51:02;;;;;;;29.63;13.35;;;1.70;99.90;;;-0.35;89.58;100704.78;5013624;28;20050;-40
2020/12/09 07:53:29;;;;;;;27.83;13.32;;;1.60;99.90;;;-0.45;89.17;100712.84;5013296;28;20050;-40
2020/12/09 07:55:59;;;;;;;33.25;14.50;;;1.60;99.90;;;-0.57;89.14;100708.63;4995804;28;20054;-40
2020/12/09 07:58:26;;;;;;;27.15;12.32;;;1.50;99.90;;;-0.63;89.68;100710.03;4996466;28;20076;-41
2020/12/09 08:00:55;;;;;;;31.20;14.00;;;1.40;99.90;;;-0.68;89.85;100708.78;4996140;28;20056;-41
2020/12/09 08:03:26;;;;;;;31.08;14.45;;;1.30;99.90;;;-0.69;90.21;100715.13;4996253;28;20121;-40
2020/12/09 08:05:56;;;;;;;33.33;14.55;;;1.30;99.90;;;-0.69;89.84;100705.22;5013606;28;20046;-40
2020/12/09 08:08:27;;;;;;;30.77;13.60;;;1.30;99.90;;;-0.65;90.20;100705.81;5013442;28;20062;-40
2020/12/09 08:11:04;;;;;;;31.52;14.20;;;1.30;99.90;;;-0.61;89.90;100708.06;5013320;28;20069;-41
2020/12/09 08:13:31;;;;;;;32.13;14.13;;;1.30;99.90;;;-0.54;90.51;100699.44;5013029;28;20080;-41
2020/12/09 08:16:06;;;;;;;31.75;13.57;;;1.40;99.90;;;-0.48;90.72;100690.84;5013337;28;20164;-40
2020/12/09 08:18:35;;;;;;;33.10;14.38;;;1.40;99.90;;;-0.41;90.79;100688.44;4995683;28;20103;-40
2020/12/09 08:21:03;;;;;;;32.58;14.95;;;1.50;99.90;;;-0.34;90.65;100692.22;4995495;28;20551;-40
2020/12/09 08:23:43;;;;;;;40.50;16.20;;;1.50;99.90;;;-0.30;90.57;100688.25;4963548;28;20061;-40
2020/12/09 08:26:11;;;;;;;33.40;14.80;;;1.60;99.90;;;-0.31;90.31;100686.56;5012983;28;20045;-40
2020/12/09 08:28:45;;;;;;;41.55;16.13;;;1.60;99.90;;;-0.36;90.28;100681.66;4996109;28;20046;-40
2020/12/09 08:31:17;;;;;;;35.72;15.63;;;1.60;99.90;;;-0.34;90.68;100692.22;5013095;28;20049;-40
2020/12/09 08:33:45;;;;;;;35.70;15.57;;;1.60;99.90;;;-0.38;90.10;100696.19;5012938;28;20080;-40
2020/12/09 08:36:15;;;;;;;36.53;17.02;;;1.50;99.90;;;-0.41;90.14;100685.75;4963379;28;20042;-41
2020/12/09 08:38:47;;;;;;;33.85;15.13;;;1.50;99.90;;;-0.42;90.40;100686.75;5013046;28;20128;-40
2020/12/09 08:41:27;;;;;;;36.47;15.43;;;1.50;99.90;;;-0.44;89.69;100684.19;5012923;28;20057;-40
2020/12/09 08:43:58;;;;;;;37.58;15.80;;;1.50;99.90;;;-0.45;90.00;100694.09;4995109;28;20128;-40
2020/12/09 08:46:28;;;;;;;37.35;15.98;;;1.50;99.90;;;-0.41;90.34;100696.47;5012759;28;20100;-40
2020/12/09 08:48:57;;;;;;;38.92;17.00;;;1.50;99.90;;;-0.33;90.16;100696.59;4995114;28;20075;-40
2020/12/09 08:51:27;;;;;;;38.20;17.60;;;1.60;99.90;;;-0.32;90.02;100701.81;5012992;28;20049;-40
2020/12/09 08:53:56;;;;;;;38.30;15.57;;;1.60;99.90;;;-0.35;89.45;100709.28;5012501;28;20076;-40
2020/12/09 08:56:34;;;;;;;37.55;16.13;;;1.50;99.90;;;-0.35;89.78;100709.28;4978920;28;20436;-40
2020/12/09 08:59:02;;;;;;;37.58;15.40;;;1.50;99.90;;;-0.36;90.49;100710.28;4995129;28;20492;-40
2020/12/09 09:01:35;;;;;;;39.80;15.98;;;1.50;99.90;;;-0.27;90.23;100719.31;4978907;28;20049;-40
2020/12/09 09:04:06;;;;;;;40.03;16.55;;;1.60;99.90;;;-0.25;89.95;100723.56;5012462;28;20512;-41
2020/12/09 09:06:34;;;;;;;42.88;16.50;;;1.60;99.90;;;-0.22;90.05;100733.97;4994775;28;20044;-40
2020/12/09 09:09:03;;;;;;;40.80;17.45;;;1.60;99.90;;;-0.20;90.28;100734.69;5012451;28;20070;-40
2020/12/09 09:11:30;;;;;;;42.10;17.13;;;1.60;99.90;;;-0.19;90.54;100732.84;4978472;28;20042;-40
2020/12/09 09:13:57;;;;;;;44.88;17.65;;;1.70;99.90;;;-0.13;89.66;100739.47;4979097;28;20443;-41
2020/12/09 09:16:25;;;;;;;40.92;16.60;;;1.70;99.90;;;-0.07;89.69;100741.56;5012350;28;20532;-40
2020/12/09 09:18:52;;;;;;;38.47;16.73;;;1.70;99.90;;;0.03;90.29;100746.91;5012382;28;20068;-40
2020/12/09 09:21:19;;;;;;;45.75;18.15;;;1.80;99.90;;;0.03;89.72;100746.91;4978690;28;20518;-41
2020/12/09 09:23:46;;;;;;;38.33;17.42;;;1.80;99.90;;;0.08;89.59;100752.69;4994468;28;20045;-41
2020/12/09 09:26:15;;;;;;;40.85;17.67;;;1.90;99.90;;;0.10;89.18;100748.00;4995146;28;20100;-40
2020/12/09 09:28:42;;;;;;;41.35;17.40;;;1.90;99.90;;;0.18;89.32;100749.97;4962915;28;20042;-40
2020/12/09 09:31:10;;;;;;;40.42;17.77;;;2.00;99.90;;;0.23;89.31;100758.41;5012143;28;20046;-40
2020/12/09 09:33:37;;;;;;;38.70;16.50;;;2.00;99.90;;;0.23;89.27;100753.06;4994413;28;20050;-40
2020/12/09 09:36:05;;;;;;;42.92;17.67;;;2.00;99.90;;;0.25;89.66;100745.69;4994652;28;20068;-41
2020/12/09 09:38:32;;;;;;;37.75;16.38;;;2.10;99.90;;;0.32;89.59;100745.97;4978431;28;20416;-41
2020/12/09 09:40:59;;;;;;;35.55;16.23;;;2.10;99.90;;;0.34;89.49;100747.53;4994501;28;20066;-41
2020/12/09 09:43:26;;;;;;;38.80;16.80;;;2.10;99.90;;;0.33;88.92;100751.19;4978320;28;20408;-40
2020/12/09 09:45:53;;;;;;;39.10;17.33;;;2.10;99.90;;;0.34;89.39;100752.88;4978561;28;20048;-40
2020/12/09 09:48:21;;;;;;;43.10;17.45;;;2.10;99.90;;;0.35;89.28;100751.03;4994647;28;20038;-40
2020/12/09 09:50:47;;;;;;;38.60;17.65;;;2.10;99.90;;;0.33;89.20;100753.03;4994461;28;20088;-40
2020/12/09 09:53:14;;;;;;;37.85;16.70;;;2.10;99.90;;;0.37;88.94;100760.63;4994349;28;20052;-40
2020/12/09 09:55:42;;;;;;;41.90;17.85;;;2.20;99.90;;;0.44;88.71;100763.59;5011860;28;20116;-41
2020/12/09 09:58:09;;;;;;;38.30;18.40;;;2.20;99.90;;;0.53;88.49;100765.38;5011610;28;20516;-41
2020/12/09 10:00:36;;;;;;;36.28;16.55;;;2.30;99.90;;;0.60;88.10;100759.41;4994816;28;20407;-40
2020/12/09 10:03:04;;;;;;;40.92;17.23;;;2.30;99.90;;;0.69;87.44;100767.41;5011604;28;20126;-40
2020/12/09 10:05:30;;;;;;;43.17;17.95;;;2.40;99.90;;;0.67;87.17;100760.53;4993865;28;20038;-40
2020/12/09 10:07:58;;;;;;;39.13;16.90;;;2.40;99.90;;;0.74;88.00;100776.88;4978040;28;20041;-40
2020/12/09 10:10:25;;;;;;;45.07;19.07;;;2.50;99.90;;;0.80;87.46;100771.75;5011800;28;20041;-40
2020/12/09 10:12:52;;;;;;;36.22;16.63;;;2.50;99.90;;;0.86;86.76;100765.78;4994237;28;20507;-40
2020/12/09 10:15:19;;;;;;;37.55;17.15;;;2.60;99.90;;;0.93;86.35;100762.47;4977906;28;20563;-40
2020/12/09 10:17:48;;;;;;;43.83;17.83;;;2.60;99.90;;;1.03;86.15;100770.47;4980243;28;20046;-40
2020/12/09 10:20:17;;;;;;;40.00;16.90;;;2.70;99.90;;;1.13;85.69;100766.72;4998392;28;20088;-41
2020/12/09 10:22:45;;;;;;;;;;;2.80;99.90;;;1.22;84.42;100773.03;5016140;28;20049;-41
2020/12/09 10:25:13;;;;;;;39.10;15.60;;;2.90;99.90;;;1.25;84.59;100772.75;4981395;28;19921;-41